Time;durP1;ratioP1;P1;durP2;ratioP2;P2;SDS_P1;SDS_P2;PMS_P1;PMS_P2;Temp;Humidity;BMP_temperature;BMP_pressure;BME280_temperature;BME280_humidity;BME280_pressure;Samples;Min_cycle;Max_cycle;Signal;HPM_P1;HPM_P2
2021/03/01 00:03:32;;;;;;;19.27;11.27;;;3.90;99.90;;;;;;10570406;28;20534;-72
2021/03/01 00:08:33;;;;;;;16.58;11.55;;;3.90;99.90;;;;;;10551775;28;20142;-72
2021/03/01 00:13:35;;;;;;;21.83;12.23;;;3.80;99.90;;;;;;10570044;28;20091;-73
2021/03/01 00:18:36;;;;;;;22.33;12.32;;;3.80;99.90;;;;;;10569730;28;20047;-72
2021/03/01 00:23:37;;;;;;;20.60;11.70;;;3.80;99.90;;;;;;10569104;28;20145;-72
2021/03/01 00:28:41;;;;;;;21.35;11.82;;;3.80;99.90;;;;;;10551862;28;20096;-73
2021/03/01 00:33:42;;;;;;;19.92;12.25;;;3.80;99.90;;;;;;10569620;28;20654;-72
2021/03/01 00:38:43;;;;;;;20.73;12.60;;;3.80;99.90;;;;;;10569699;28;20543;-72
2021/03/01 00:43:45;;;;;;;17.48;11.32;;;3.80;99.90;;;;;;10569526;28;20130;-72
2021/03/01 00:48:46;;;;;;;20.20;12.10;;;3.80;99.90;;;;;;10569355;28;20071;-72
2021/03/01 00:53:47;;;;;;;21.67;13.05;;;3.80;99.90;;;;;;10569104;28;20075;-72
2021/03/01 00:58:49;;;;;;;24.38;13.07;;;3.80;99.90;;;;;;10569192;28;20078;-72
2021/03/01 01:03:51;;;;;;;22.40;12.93;;;3.80;99.90;;;;;;10569098;28;20129;-72
2021/03/01 01:08:52;;;;;;;25.23;14.40;;;3.80;99.90;;;;;;10569269;28;20082;-72
2021/03/01 01:13:53;;;;;;;22.35;12.75;;;3.90;99.90;;;;;;10567968;28;20138;-71
2021/03/01 01:18:55;;;;;;;19.58;12.10;;;3.70;99.90;;;;;;10568846;28;20471;-71
2021/03/01 01:23:56;;;;;;;23.17;13.35;;;3.60;99.90;;;;;;10508745;28;20159;-72
2021/03/01 01:28:58;;;;;;;19.67;12.48;;;3.30;99.90;;;;;;10569170;28;20487;-71
2021/03/01 01:33:59;;;;;;;21.23;12.57;;;3.30;99.90;;;;;;10568851;28;20131;-72
2021/03/01 01:39:00;;;;;;;21.48;12.02;;;3.30;99.90;;;;;;10557485;28;20126;-72
2021/03/01 01:44:02;;;;;;;22.38;12.75;;;3.20;99.90;;;;;;10575867;28;20091;-72
2021/03/01 01:49:04;;;;;;;20.80;12.60;;;3.20;99.90;;;;;;10576115;28;20550;-72
2021/03/01 01:54:05;;;;;;;20.10;11.90;;;3.20;99.90;;;;;;10575473;28;20139;-72
2021/03/01 01:59:07;;;;;;;21.02;12.43;;;3.10;99.90;;;;;;10575093;28;20071;-72
2021/03/01 02:04:30;;;;;;;19.83;12.10;;;3.00;99.90;;;;;;10574877;28;20134;-72
2021/03/01 02:09:49;;;;;;;19.92;11.77;;;3.00;99.90;;;;;;10551948;28;20083;-71
2021/03/01 02:15:08;;;;;;;17.60;11.57;;;2.80;99.90;;;;;;10574200;28;20079;-72
2021/03/01 02:20:11;;;;;;;17.98;12.18;;;2.80;99.90;;;;;;10574316;28;20126;-71
2021/03/01 02:25:17;;;;;;;19.42;12.05;;;2.70;99.90;;;;;;10574354;28;20048;-72
2021/03/01 02:30:26;;;;;;;18.08;12.13;;;2.70;99.90;;;;;;10573809;28;20098;-71
2021/03/01 02:35:31;;;;;;;20.42;12.57;;;2.60;99.90;;;;;;10573250;28;20055;-72
2021/03/01 02:40:34;;;;;;;18.90;11.70;;;2.60;99.90;;;;;;10573323;28;20444;-71
2021/03/01 02:45:37;;;;;;;23.42;12.75;;;2.50;99.90;;;;;;10573272;28;20484;-71
2021/03/01 02:50:39;;;;;;;19.88;11.93;;;2.40;99.90;;;;;;10573050;28;20109;-72
2021/03/01 02:55:44;;;;;;;38.78;23.10;;;2.40;99.90;;;;;;10573233;28;20059;-72
2021/03/01 03:00:47;;;;;;;21.88;13.38;;;2.20;99.90;;;;;;10573350;28;20043;-71
2021/03/01 03:05:49;;;;;;;16.20;10.50;;;2.20;99.90;;;;;;10580507;28;20104;-72
2021/03/01 03:10:52;;;;;;;20.23;10.10;;;2.10;99.90;;;;;;10562328;28;20101;-72
2021/03/01 03:15:56;;;;;;;14.65;9.65;;;2.10;99.90;;;;;;10578914;28;20083;-72
2021/03/01 03:20:58;;;;;;;19.98;11.00;;;2.10;99.90;;;;;;10580015;28;20124;-71
2021/03/01 03:26:00;;;;;;;15.80;9.32;;;2.10;99.90;;;;;;10539334;28;20083;-72
2021/03/01 03:31:02;;;;;;;17.48;10.00;;;2.10;99.90;;;;;;10579834;28;20126;-72
2021/03/01 03:36:04;;;;;;;18.35;10.50;;;2.10;99.90;;;;;;10579029;28;20127;-72
2021/03/01 03:41:08;;;;;;;15.70;9.13;;;2.00;99.90;;;;;;10579069;28;20089;-72
2021/03/01 03:46:11;;;;;;;18.20;9.15;;;2.10;99.90;;;;;;10579145;28;20052;-72
2021/03/01 03:51:13;;;;;;;19.63;10.77;;;2.00;99.90;;;;;;10578693;28;20075;-71
2021/03/01 03:56:20;;;;;;;15.57;9.30;;;2.00;99.90;;;;;;10578858;28;20082;-72
2021/03/01 04:01:23;;;;;;;16.15;9.13;;;2.00;99.90;;;;;;10560219;28;20075;-71
2021/03/01 04:06:25;;;;;;;17.17;10.10;;;1.90;99.90;;;;;;10572635;27;20166;-71
2021/03/01 04:11:28;;;;;;;18.60;9.18;;;1.90;99.90;;;;;;10571618;28;20134;-72
2021/03/01 04:16:31;;;;;;;14.13;9.20;;;1.90;99.90;;;;;;10571284;28;20151;-72
2021/03/01 04:21:36;;;;;;;13.55;8.63;;;1.90;99.90;;;;;;10571074;28;20057;-72
2021/03/01 04:26:38;;;;;;;17.75;10.20;;;1.80;99.90;;;;;;10570816;28;20104;-72
2021/03/01 04:31:43;;;;;;;22.35;11.35;;;1.80;99.90;;;;;;10570791;28;20046;-71
2021/03/01 04:36:44;;;;;;;16.63;9.80;;;1.80;99.90;;;;;;10552569;28;20043;-72
2021/03/01 04:41:46;;;;;;;18.15;10.13;;;1.80;99.90;;;;;;10552570;28;20559;-71
2021/03/01 04:46:57;;;;;;;17.20;9.90;;;1.80;99.90;;;;;;10552800;28;20056;-72
2021/03/01 04:51:59;;;;;;;16.20;10.30;;;1.70;99.90;;;;;;10551731;28;20074;-71
2021/03/01 04:57:01;;;;;;;19.40;10.57;;;1.70;99.90;;;;;;10552299;28;20327;-71
2021/03/01 05:02:04;;;;;;;20.05;10.73;;;1.70;99.90;;;;;;10552133;28;20130;-72
2021/03/01 05:07:07;;;;;;;18.67;10.70;;;1.70;99.90;;;;;;10552022;28;20078;-72
2021/03/01 05:12:08;;;;;;;40.17;19.67;;;1.60;99.90;;;;;;10574866;28;20132;-72
2021/03/01 05:17:10;;;;;;;19.25;11.23;;;1.40;99.90;;;;;;10576206;28;20074;-71
2021/03/01 05:22:12;;;;;;;20.27;11.38;;;1.50;99.90;;;;;;10559329;28;20111;-72
2021/03/01 05:27:13;;;;;;;19.42;11.10;;;1.70;99.90;;;;;;10577415;28;20463;-71
2021/03/01 05:32:14;;;;;;;16.67;11.07;;;2.00;99.90;;;;;;10577016;28;20139;-71
2021/03/01 05:37:16;;;;;;;20.60;11.70;;;2.20;99.90;;;;;;10558830;28;20048;-71
2021/03/01 05:42:19;;;;;;;16.48;10.70;;;2.10;99.90;;;;;;10576737;28;20496;-71
2021/03/01 05:47:22;;;;;;;16.25;9.80;;;2.10;99.90;;;;;;10576623;28;20071;-71
2021/03/01 05:52:24;;;;;;;20.42;11.80;;;2.10;99.90;;;;;;10576148;28;20453;-72
2021/03/01 05:57:27;;;;;;;20.60;12.00;;;2.20;99.90;;;;;;10576844;28;20082;-71
2021/03/01 06:02:30;;;;;;;24.88;12.50;;;2.40;99.90;;;;;;10576225;28;20048;-72
2021/03/01 06:07:32;;;;;;;20.10;10.95;;;2.60;99.90;;;;;;10557929;28;20150;-72
2021/03/01 06:12:33;;;;;;;18.45;11.32;;;2.60;99.90;;;;;;10574792;28;20146;-71
2021/03/01 06:17:35;;;;;;;24.38;13.73;;;2.80;99.90;;;;;;10557227;28;20109;-72
2021/03/01 06:22:42;;;;;;;26.13;14.10;;;3.00;99.90;;;;;;10575320;28;20052;-72
2021/03/01 06:27:55;;;;;;;27.98;15.55;;;3.20;99.90;;;;;;10556101;28;20493;-71
2021/03/01 06:33:08;;;;;;;21.67;13.27;;;3.30;99.90;;;;;;10556947;28;20090;-72
2021/03/01 06:38:31;;;;;;;26.20;15.38;;;3.40;99.90;;;;;;10574572;28;20051;-72
2021/03/01 06:43:33;;;;;;;25.77;16.50;;;3.50;99.90;;;;;;10574662;28;20048;-71
2021/03/01 06:48:36;;;;;;;26.48;15.50;;;3.40;99.90;;;;;;10573943;28;20054;-72
2021/03/01 06:53:38;;;;;;;32.95;17.58;;;3.50;99.90;;;;;;10574061;28;20055;-72
2021/03/01 06:58:46;;;;;;;31.95;17.55;;;3.70;99.90;;;;;;10573418;28;20048;-71
2021/03/01 07:03:49;;;;;;;33.53;17.92;;;3.70;99.90;;;;;;10573723;28;20092;-72
2021/03/01 07:08:54;;;;;;;28.20;17.77;;;3.70;99.90;;;;;;10572731;28;20122;-72
2021/03/01 07:14:04;;;;;;;33.42;18.52;;;3.60;99.90;;;;;;10572765;28;20055;-71
2021/03/01 07:19:34;;;;;;;25.50;17.85;;;3.70;99.90;;;;;;10572402;28;20528;-71
2021/03/01 07:24:35;;;;;;;32.40;20.02;;;3.80;99.90;;;;;;10565780;27;20079;-72
2021/03/01 07:29:42;;;;;;;28.27;17.85;;;4.00;99.90;;;;;;10551549;28;20047;-72
2021/03/01 07:34:44;;;;;;;28.95;18.02;;;4.20;99.90;;;;;;10551088;28;20131;-72
2021/03/01 07:39:46;;;;;;;26.13;17.63;;;4.40;99.90;;;;;;10570099;28;20044;-72
2021/03/01 07:44:48;;;;;;;30.88;18.88;;;4.60;99.90;;;;;;10570805;28;20573;-72
2021/03/01 07:49:50;;;;;;;30.13;19.92;;;4.70;99.90;;;;;;10552547;28;20126;-72
2021/03/01 07:54:55;;;;;;;32.95;20.20;;;4.80;99.90;;;;;;10570363;28;20047;-72
2021/03/01 07:59:58;;;;;;;27.00;18.52;;;4.90;99.90;;;;;;10570481;28;20535;-72
2021/03/01 08:05:23;;;;;;;29.15;19.10;;;5.10;99.90;;;;;;10558849;28;20096;-72
2021/03/01 08:10:27;;;;;;;27.17;19.70;;;5.20;99.90;;;;;;10568230;28;20079;-72
2021/03/01 08:15:36;;;;;;;23.13;16.35;;;5.10;99.90;;;;;;10569501;28;20050;-72
2021/03/01 08:20:41;;;;;;;24.40;17.00;;;5.10;99.90;;;;;;10569247;28;20108;-72
2021/03/01 08:25:44;;;;;;;25.52;17.85;;;5.30;99.90;;;;;;10568674;28;20052;-72
2021/03/01 08:30:53;;;;;;;26.25;18.55;;;5.20;99.90;;;;;;10568771;28;20059;-72
2021/03/01 08:36:01;;;;;;;25.23;17.75;;;5.00;99.90;;;;;;10568467;28;20051;-72
2021/03/01 08:41:02;;;;;;;23.42;17.08;;;5.10;99.90;;;;;;10568962;28;20122;-72
2021/03/01 08:46:13;;;;;;;23.98;16.63;;;5.20;99.90;;;;;;10574357;28;20075;-72
2021/03/01 08:51:17;;;;;;;23.65;16.90;;;5.10;99.90;;;;;;10576075;28;20410;-72
2021/03/01 08:56:21;;;;;;;24.38;17.55;;;5.20;99.90;;;;;;10560163;28;20134;-72
2021/03/01 09:01:25;;;;;;;23.85;17.02;;;5.30;99.90;;;;;;10574409;28;20108;-72
2021/03/01 09:06:30;;;;;;;20.25;15.82;;;5.70;99.90;;;;;;10573221;28;20083;-72
2021/03/01 09:11:32;;;;;;;20.73;16.33;;;5.70;99.90;;;;;;10574889;28;20040;-72
2021/03/01 09:16:36;;;;;;;22.67;16.25;;;5.70;99.90;;;;;;10575524;28;20487;-72
2021/03/01 09:21:43;;;;;;;19.73;14.98;;;5.80;99.90;;;;;;10570043;28;20115;-72
2021/03/01 09:26:45;;;;;;;19.10;14.63;;;6.10;99.90;;;;;;10565713;28;20064;-72
2021/03/01 09:31:49;;;;;;;19.15;14.82;;;6.70;99.90;;;;;;10556889;28;20051;-68
2021/03/01 09:36:51;;;;;;;17.95;13.68;;;6.90;99.90;;;;;;10575345;28;20052;-68
2021/03/01 09:41:55;;;;;;;17.92;13.90;;;7.30;99.90;;;;;;10575589;28;20134;-68
2021/03/01 09:46:57;;;;;;;17.67;13.75;;;7.30;99.90;;;;;;10570082;27;20136;-68
2021/03/01 09:51:59;;;;;;;18.15;13.23;;;7.40;99.90;;;;;;10566526;28;20491;-69
2021/03/01 09:57:06;;;;;;;18.65;13.98;;;7.60;99.90;;;;;;10573371;28;20094;-68
2021/03/01 10:02:15;;;;;;;16.73;13.27;;;7.90;99.90;;;;;;10574356;28;20109;-69
2021/03/01 10:07:23;;;;;;;16.05;12.85;;;8.10;99.90;;;;;;10577953;27;20056;-69
2021/03/01 10:12:26;;;;;;;16.77;12.93;;;8.20;99.90;;;;;;10527027;28;20072;-68
2021/03/01 10:17:31;;;;;;;15.98;13.20;;;8.10;99.90;;;;;;10530041;28;20523;-68
2021/03/01 10:23:06;;;;;;;17.50;13.02;;;8.20;99.90;;;;;;10521704;28;20355;-69
2021/03/01 10:28:35;;;;;;;14.90;12.05;;;7.90;99.90;;;;;;10524494;28;20044;-69
2021/03/01 10:33:52;;;;;;;15.55;12.00;;;7.70;99.90;;;;;;10524889;28;20055;-69
2021/03/01 10:39:04;;;;;;;15.88;11.77;;;8.00;99.90;;;;;;10528931;28;20050;-68
2021/03/01 10:44:07;;;;;;;16.88;11.35;;;8.20;99.90;;;;;;10528594;28;20075;-69
2021/03/01 10:49:24;;;;;;;12.93;10.43;;;8.10;99.90;;;;;;10531120;28;20505;-69
2021/03/01 10:54:27;;;;;;;15.98;11.35;;;8.40;99.90;;;;;;10531292;28;20056;-69
2021/03/01 10:59:28;;;;;;;14.75;11.20;;;8.60;99.90;;;;;;10529279;28;20071;-68
2021/03/01 11:04:30;;;;;;;14.35;10.80;;;8.60;99.90;;;;;;10512685;28;20468;-68
2021/03/01 11:09:31;;;;;;;13.98;10.52;;;8.70;99.90;;;;;;10508146;28;20139;-69
2021/03/01 11:14:33;;;;;;;15.90;11.35;;;8.90;99.90;;;;;;10556895;28;20135;-68
2021/03/01 11:19:35;;;;;;;15.23;11.07;;;9.00;99.90;;;;;;10553126;28;20044;-68
2021/03/01 11:24:36;;;;;;;14.23;10.85;;;9.00;99.90;;;;;;10560586;28;20078;-68
2021/03/01 11:29:38;;;;;;;12.57;10.02;;;9.10;99.90;;;;;;10569605;28;20399;-69
2021/03/01 11:34:39;;;;;;;12.60;10.15;;;9.40;99.90;;;;;;10569480;28;20079;-69
2021/03/01 11:39:41;;;;;;;14.27;10.02;;;9.40;99.90;;;;;;10549979;28;20486;-68
2021/03/01 11:44:42;;;;;;;13.52;9.88;;;9.60;99.90;;;;;;10570296;28;20108;-69
2021/03/01 11:49:44;;;;;;;13.15;10.40;;;9.60;99.90;;;;;;10570314;28;20351;-68
2021/03/01 11:54:45;;;;;;;16.13;9.65;;;9.80;99.90;;;;;;10561136;28;20088;-69
2021/03/01 11:59:50;;;;;;;15.82;10.63;;;10.10;99.90;;;;;;10564795;28;20564;-69
2021/03/01 12:04:51;;;;;;;14.57;11.00;;;10.30;99.90;;;;;;10545312;28;20667;-69
2021/03/01 12:09:53;;;;;;;14.02;9.68;;;10.40;99.90;;;;;;10545739;28;20074;-69
2021/03/01 12:14:54;;;;;;;13.15;9.52;;;10.50;99.90;;;;;;10566126;28;20142;-69
2021/03/01 12:19:56;;;;;;;15.07;9.88;;;10.60;99.90;;;;;;10550615;28;20063;-69
2021/03/01 12:24:57;;;;;;;16.50;9.85;;;10.70;99.90;;;;;;10544188;28;20123;-69
2021/03/01 12:29:59;;;;;;;11.98;9.40;;;10.70;99.90;;;;;;10550104;28;20395;-69
2021/03/01 12:35:01;;;;;;;15.52;9.50;;;11.00;99.90;;;;;;10567598;28;20113;-69
2021/03/01 12:40:05;;;;;;;11.88;9.32;;;11.20;99.90;;;;;;10568646;28;20050;-69
2021/03/01 12:45:07;;;;;;;13.32;9.02;;;11.20;99.90;;;;;;10569132;28;20044;-69
2021/03/01 12:50:09;;;;;;;15.88;9.50;;;11.40;98.90;;;;;;10550337;28;20082;-69
2021/03/01 12:55:11;;;;;;;12.80;9.32;;;11.60;99.00;;;;;;10568047;28;20520;-68
2021/03/01 13:00:14;;;;;;;11.23;8.40;;;11.90;96.40;;;;;;10566357;28;20075;-69
2021/03/01 13:05:15;;;;;;;11.52;8.30;;;12.00;94.10;;;;;;10549547;28;20473;-69
2021/03/01 13:10:16;;;;;;;13.93;9.73;;;12.20;93.30;;;;;;10549742;28;20055;-69
2021/03/01 13:15:18;;;;;;;12.93;9.00;;;12.30;92.20;;;;;;10568762;28;20075;-69
2021/03/01 13:20:19;;;;;;;15.50;8.63;;;12.40;91.00;;;;;;10567989;28;20135;-69
2021/03/01 13:25:21;;;;;;;14.75;8.80;;;12.50;89.50;;;;;;10565116;28;20174;-69
2021/03/01 13:30:23;;;;;;;14.40;8.85;;;12.70;89.40;;;;;;10565156;28;20071;-67
2021/03/01 13:35:42;;;;;;;14.43;8.88;;;13.00;88.80;;;;;;10575268;28;20043;-67
2021/03/01 13:40:43;;;;;;;13.07;8.40;;;13.20;84.20;;;;;;10574823;28;20514;-67
2021/03/01 13:45:45;;;;;;;12.85;8.77;;;13.20;81.70;;;;;;10557288;28;20054;-67
2021/03/01 13:50:46;;;;;;;15.85;8.80;;;13.30;79.30;;;;;;10574300;27;20154;-67
2021/03/01 13:55:48;;;;;;;12.18;8.20;;;13.30;78.80;;;;;;10559279;28;20493;-67
2021/03/01 14:00:49;;;;;;;18.98;7.97;;;13.50;78.20;;;;;;10556798;28;20688;-67
2021/03/01 14:05:53;;;;;;;13.15;8.10;;;13.50;76.40;;;;;;10574615;28;20125;-67
2021/03/01 14:10:54;;;;;;;10.90;7.57;;;13.60;74.40;;;;;;10572815;28;20063;-67
2021/03/01 14:15:56;;;;;;;10.05;7.40;;;13.60;74.70;;;;;;10573921;28;20483;-67
2021/03/01 14:20:57;;;;;;;13.07;7.85;;;13.80;75.60;;;;;;10574934;28;20483;-67
2021/03/01 14:25:59;;;;;;;11.38;7.50;;;13.90;74.20;;;;;;10554432;28;20130;-67
2021/03/01 14:31:00;;;;;;;13.50;7.15;;;14.00;73.50;;;;;;10574407;28;20126;-67
2021/03/01 14:36:03;;;;;;;10.23;7.03;;;14.00;71.40;;;;;;10539871;28;20514;-67
2021/03/01 14:41:05;;;;;;;9.88;7.15;;;14.10;70.40;;;;;;10551931;28;20135;-68
2021/03/01 14:46:07;;;;;;;13.48;7.28;;;14.00;69.80;;;;;;10557011;28;20043;-68
2021/03/01 14:51:09;;;;;;;10.48;6.80;;;14.00;69.80;;;;;;10571741;28;20071;-68
2021/03/01 14:56:10;;;;;;;9.68;6.45;;;14.20;68.90;;;;;;10573353;28;20504;-67
2021/03/01 15:01:12;;;;;;;8.02;5.72;;;14.30;69.00;;;;;;10574525;28;20086;-68
2021/03/01 15:06:14;;;;;;;9.30;6.32;;;14.40;67.40;;;;;;10573904;28;20282;-68
2021/03/01 15:11:15;;;;;;;9.82;5.93;;;14.20;66.90;;;;;;10573712;28;20087;-68
2021/03/01 15:16:17;;;;;;;7.40;5.53;;;14.20;65.90;;;;;;10555449;28;20090;-68
2021/03/01 15:21:18;;;;;;;8.93;5.80;;;14.20;65.50;;;;;;10572922;28;20079;-68
2021/03/01 15:26:20;;;;;;;9.82;5.20;;;14.20;64.80;;;;;;10555305;28;20130;-68
2021/03/01 15:31:21;;;;;;;10.00;5.15;;;14.10;64.40;;;;;;10554536;27;20450;-68
2021/03/01 15:36:23;;;;;;;8.18;5.25;;;14.10;64.90;;;;;;10555394;28;20075;-68
2021/03/01 15:41:28;;;;;;;7.57;5.03;;;14.10;64.10;;;;;;10570461;28;20071;-68
2021/03/01 15:46:29;;;;;;;8.35;5.10;;;13.90;64.00;;;;;;10569685;28;20500;-68
2021/03/01 15:51:31;;;;;;;7.45;5.30;;;13.80;64.90;;;;;;10566753;28;20039;-68
2021/03/01 15:56:32;;;;;;;11.32;5.40;;;13.80;65.10;;;;;;10568033;28;20161;-67
2021/03/01 16:01:34;;;;;;;8.07;5.57;;;13.80;65.80;;;;;;10551537;28;20380;-67
2021/03/01 16:06:36;;;;;;;8.68;5.05;;;13.60;65.20;;;;;;10570010;28;20138;-68
2021/03/01 16:11:37;;;;;;;8.45;5.32;;;13.40;65.70;;;;;;10549827;28;20407;-68
2021/03/01 16:16:40;;;;;;;6.65;4.80;;;13.40;66.40;;;;;;10569506;28;20174;-68
2021/03/01 16:21:42;;;;;;;7.55;4.45;;;13.20;66.30;;;;;;10569272;28;20043;-68
2021/03/01 16:26:44;;;;;;;6.95;4.50;;;13.10;67.40;;;;;;10569227;28;20493;-70
2021/03/01 16:31:45;;;;;;;7.75;4.90;;;12.90;67.60;;;;;;10568552;28;20098;-69
2021/03/01 16:36:47;;;;;;;9.65;5.05;;;12.70;68.20;;;;;;10551788;28;20051;-69
2021/03/01 16:41:49;;;;;;;7.78;4.97;;;12.60;69.30;;;;;;10569006;28;20104;-69
2021/03/01 16:46:57;;;;;;;9.65;4.88;;;12.30;69.60;;;;;;10568567;28;20481;-70
2021/03/01 16:52:00;;;;;;;10.70;4.90;;;12.20;70.70;;;;;;10569378;28;20054;-70
2021/03/01 16:57:23;;;;;;;8.30;5.35;;;12.00;70.50;;;;;;10569016;28;20054;-67
2021/03/01 17:02:25;;;;;;;8.50;5.03;;;11.70;72.30;;;;;;10550334;28;20468;-67
2021/03/01 17:07:31;;;;;;;8.98;5.15;;;11.50;72.50;;;;;;10575059;28;20052;-67
2021/03/01 17:13:07;;;;;;;9.73;4.97;;;11.20;73.60;;;;;;10558508;28;20055;-67
2021/03/01 17:18:12;;;;;;;7.70;4.70;;;11.10;75.60;;;;;;10558644;28;20091;-68
2021/03/01 17:23:18;;;;;;;7.57;5.78;;;10.90;77.40;;;;;;10576439;28;20047;-67
2021/03/01 17:28:20;;;;;;;10.43;5.40;;;10.60;79.50;;;;;;10576322;28;20079;-68
2021/03/01 17:33:24;;;;;;;8.23;5.20;;;10.40;82.40;;;;;;10573319;28;20131;-68
2021/03/01 17:38:28;;;;;;;9.23;5.20;;;10.20;87.30;;;;;;10567496;28;20043;-67
2021/03/01 17:43:29;;;;;;;7.70;5.22;;;10.10;90.10;;;;;;10575638;28;20055;-69
2021/03/01 17:48:33;;;;;;;10.90;5.60;;;10.00;91.40;;;;;;10576150;28;20264;-69
2021/03/01 17:53:42;;;;;;;9.30;5.85;;;10.00;93.70;;;;;;10575050;28;20052;-69
2021/03/01 17:58:45;;;;;;;8.45;6.00;;;9.70;97.70;;;;;;10576050;28;20171;-77
2021/03/01 18:03:54;;;;;;;11.20;6.90;;;9.60;99.90;;;;;;10557027;28;20101;-77
2021/03/01 18:08:59;;;;;;;8.75;6.60;;;9.40;99.90;;;;;;10573711;28;20555;-76
2021/03/01 18:14:05;;;;;;;10.05;6.85;;;9.10;99.90;;;;;;10574753;28;20144;-77
2021/03/01 18:19:17;;;;;;;9.50;7.15;;;9.00;99.90;;;;;;10571591;28;20516;-77
2021/03/01 18:24:20;;;;;;;9.00;6.97;;;8.90;99.90;;;;;;10574918;28;20095;-77
2021/03/01 18:29:23;;;;;;;9.95;7.00;;;8.90;99.90;;;;;;10574790;28;20043;-77
2021/03/01 18:34:31;;;;;;;11.95;7.95;;;8.90;99.90;;;;;;10572789;28;20116;-77
2021/03/01 18:39:58;;;;;;;9.02;6.88;;;8.80;99.90;;;;;;10573432;28;20040;-77
2021/03/01 18:45:05;;;;;;;9.90;7.07;;;8.60;99.90;;;;;;10563328;28;20079;-77
2021/03/01 18:50:11;;;;;;;9.65;7.63;;;8.60;99.90;;;;;;10574436;28;20064;-77
2021/03/01 18:55:14;;;;;;;9.07;6.95;;;8.60;99.90;;;;;;10572196;28;20228;-77
2021/03/01 19:00:16;;;;;;;10.38;7.78;;;8.60;99.90;;;;;;10572337;28;20071;-77
2021/03/01 19:05:17;;;;;;;11.40;7.30;;;8.60;99.90;;;;;;10540839;28;20067;-77
2021/03/01 19:10:20;;;;;;;10.13;7.40;;;8.40;99.90;;;;;;10555008;28;20054;-77
2021/03/01 19:15:22;;;;;;;9.20;7.53;;;8.40;99.90;;;;;;10555304;28;20144;-77
2021/03/01 19:20:23;;;;;;;11.18;7.57;;;8.40;99.90;;;;;;10568558;28;20046;-76
2021/03/01 19:25:29;;;;;;;11.02;7.10;;;8.40;99.90;;;;;;10569926;28;20132;-77
2021/03/01 19:30:30;;;;;;;10.43;7.30;;;8.40;99.90;;;;;;10567531;28;20138;-76
2021/03/01 19:35:32;;;;;;;10.77;7.93;;;8.40;99.90;;;;;;10571833;28;20484;-77
2021/03/01 19:40:33;;;;;;;10.27;7.68;;;8.30;99.90;;;;;;10571470;28;20444;-77
2021/03/01 19:45:35;;;;;;;12.10;8.18;;;8.30;99.90;;;;;;10572041;28;20081;-76
2021/03/01 19:50:36;;;;;;;11.20;8.68;;;8.30;99.90;;;;;;10571653;28;20078;-77
2021/03/01 19:55:40;;;;;;;12.10;9.82;;;8.20;99.90;;;;;;10567677;28;20579;-76
2021/03/01 20:00:42;;;;;;;12.82;9.82;;;8.10;99.90;;;;;;10570074;28;20126;-77
2021/03/01 20:05:44;;;;;;;16.13;9.95;;;8.00;99.90;;;;;;10570587;28;20120;-77
2021/03/01 20:10:48;;;;;;;15.10;10.60;;;7.80;99.90;;;;;;10552317;28;20130;-77
2021/03/01 20:15:49;;;;;;;18.05;12.70;;;7.70;99.90;;;;;;10570713;28;20489;-74
2021/03/01 20:20:52;;;;;;;16.48;11.27;;;7.50;99.90;;;;;;10532210;28;20039;-74
2021/03/01 20:25:55;;;;;;;14.73;11.40;;;7.50;99.90;;;;;;10551218;28;20049;-74
2021/03/01 20:30:56;;;;;;;14.20;10.38;;;7.40;99.90;;;;;;10569945;28;20385;-74
2021/03/01 20:35:58;;;;;;;10.90;8.80;;;7.40;99.90;;;;;;10569051;28;20522;-74
2021/03/01 20:41:01;;;;;;;13.68;9.82;;;7.40;99.90;;;;;;10556416;28;20646;-74
2021/03/01 20:46:03;;;;;;;13.40;9.93;;;7.40;99.90;;;;;;10577041;28;20051;-74
2021/03/01 20:51:06;;;;;;;15.15;9.18;;;7.40;99.90;;;;;;10577992;28;20122;-74
2021/03/01 20:56:22;;;;;;;16.42;11.10;;;7.30;99.90;;;;;;10577332;28;20126;-76
2021/03/01 21:01:24;;;;;;;15.32;10.93;;;7.30;99.90;;;;;;10576551;28;20487;-76
2021/03/01 21:06:26;;;;;;;16.52;11.40;;;7.30;99.90;;;;;;10577953;28;20052;-77
2021/03/01 21:11:28;;;;;;;17.95;11.82;;;7.30;99.90;;;;;;10558747;28;20093;-77
2021/03/01 21:16:33;;;;;;;15.23;11.77;;;7.10;99.90;;;;;;10558905;28;20514;-77
2021/03/01 21:21:38;;;;;;;16.05;11.65;;;7.00;99.90;;;;;;10576505;28;20096;-77
2021/03/01 21:26:45;;;;;;;17.08;12.90;;;7.00;99.90;;;;;;10576810;28;20052;-77
2021/03/01 21:31:52;;;;;;;16.38;12.50;;;6.90;99.90;;;;;;10575897;28;20054;-76
2021/03/01 21:36:56;;;;;;;15.15;11.50;;;6.80;99.90;;;;;;10532881;28;20479;-76
2021/03/01 21:41:57;;;;;;;16.48;12.13;;;6.80;99.90;;;;;;10576257;28;20097;-77
2021/03/01 21:47:02;;;;;;;13.77;11.68;;;6.70;99.90;;;;;;10575495;28;20055;-76
2021/03/01 21:52:05;;;;;;;13.95;10.45;;;6.70;99.90;;;;;;10572637;28;20128;-77
2021/03/01 21:57:07;;;;;;;15.50;11.70;;;6.60;99.90;;;;;;10564739;28;20478;-77
2021/03/01 22:02:08;;;;;;;16.38;10.90;;;6.60;99.90;;;;;;10575198;28;20058;-77
2021/03/01 22:07:10;;;;;;;17.27;12.35;;;6.60;99.90;;;;;;10574675;28;20054;-78
2021/03/01 22:12:12;;;;;;;15.93;12.40;;;6.40;99.90;;;;;;10574412;28;20044;-77
2021/03/01 22:17:14;;;;;;;15.68;12.55;;;6.30;99.90;;;;;;10574718;28;20051;-78
2021/03/01 22:22:16;;;;;;;14.77;11.80;;;6.20;99.90;;;;;;10574791;28;20081;-77
2021/03/01 22:27:23;;;;;;;18.08;13.25;;;6.20;99.90;;;;;;10572274;28;20043;-77
2021/03/01 22:32:27;;;;;;;16.65;12.70;;;6.10;99.90;;;;;;10571974;28;20458;-76
2021/03/01 22:37:30;;;;;;;16.55;12.45;;;6.10;99.90;;;;;;10556114;28;20043;-77
2021/03/01 22:42:32;;;;;;;15.00;12.40;;;6.00;99.90;;;;;;10555905;28;20047;-77
2021/03/01 22:47:35;;;;;;;15.07;12.55;;;6.00;99.90;;;;;;10573163;28;20098;-77
2021/03/01 22:52:39;;;;;;;15.15;11.98;;;6.00;99.90;;;;;;10555201;28;20057;-77
2021/03/01 22:57:48;;;;;;;17.08;13.02;;;6.00;99.90;;;;;;10572880;28;20135;-77
2021/03/01 23:02:50;;;;;;;16.27;12.02;;;6.00;99.90;;;;;;10572602;28;20043;-77
2021/03/01 23:07:52;;;;;;;16.55;13.57;;;5.90;99.90;;;;;;10572624;28;20411;-77
2021/03/01 23:12:53;;;;;;;16.13;13.32;;;5.80;99.90;;;;;;10572856;28;20047;-77
2021/03/01 23:17:55;;;;;;;18.98;13.93;;;5.80;99.90;;;;;;10554363;28;20097;-77
2021/03/01 23:22:56;;;;;;;16.52;12.80;;;5.80;99.90;;;;;;10571788;28;20455;-77
2021/03/01 23:27:58;;;;;;;17.23;13.90;;;5.60;99.90;;;;;;10571601;28;20051;-77
2021/03/01 23:32:59;;;;;;;22.00;14.23;;;5.50;99.90;;;;;;10571351;28;20043;-76
2021/03/01 23:38:03;;;;;;;20.17;14.95;;;5.40;99.90;;;;;;10571576;28;20271;-77
2021/03/01 23:43:05;;;;;;;18.77;15.55;;;5.30;99.90;;;;;;10571258;28;20043;-76
2021/03/01 23:48:07;;;;;;;19.75;13.48;;;5.20;99.90;;;;;;10569888;28;20052;-77
2021/03/01 23:53:13;;;;;;;18.48;13.00;;;5.10;99.90;;;;;;10552437;28;20043;-77
2021/03/01 23:58:16;;;;;;;19.50;14.20;;;5.00;99.90;;;;;;10571076;28;20051;-77
